createdAt,value
2023-05-05T00:00:01.957Z,100228.34
2023-05-05T00:00:58.973Z,100228.69
2023-05-05T00:01:56.084Z,100226.75
2023-05-05T00:02:53.116Z,100224.63
2023-05-05T00:03:50.622Z,100230.69
2023-05-05T00:04:58.176Z,100223.25
2023-05-05T00:05:55.622Z,100224.75
2023-05-05T00:06:52.560Z,100226.31
2023-05-05T00:07:50.259Z,100224.69
2023-05-05T00:08:47.933Z,100223.72
2023-05-05T00:09:45.290Z,100217.53
2023-05-05T00:10:45.146Z,100222.75
2023-05-05T00:11:42.285Z,100223.06
2023-05-05T00:12:39.575Z,100222.06
2023-05-05T00:13:37.114Z,100220.63
2023-05-05T00:14:34.464Z,100228.50
2023-05-05T00:15:31.601Z,100225.66
2023-05-05T00:18:24.984Z,100228.75
2023-05-05T00:19:22.634Z,100228.22
2023-05-05T00:20:20.356Z,100228.06
2023-05-05T00:21:17.910Z,100229.44
2023-05-05T00:22:15.704Z,100224.91
2023-05-05T00:23:17.077Z,100223.31
2023-05-05T00:24:14.538Z,100228.53
2023-05-05T00:25:12.306Z,100230.97
2023-05-05T00:26:14.425Z,100232.69
2023-05-05T00:27:15.151Z,100228.00
2023-05-05T00:28:14.372Z,100228.28
2023-05-05T00:29:22.237Z,100229.09
2023-05-05T00:30:20.547Z,100221.94
2023-05-05T00:31:29.432Z,100222.34
2023-05-05T00:32:34.119Z,100222.94
2023-05-05T00:33:31.485Z,100226.84
2023-05-05T00:34:33.558Z,100223.84
2023-05-05T00:35:36.499Z,100220.22
2023-05-05T00:36:37.903Z,100215.53
2023-05-05T00:37:36.349Z,100218.16
2023-05-05T00:38:34.274Z,100220.69
2023-05-05T00:40:29.331Z,100224.22
2023-05-05T00:41:27.143Z,100218.78
2023-05-05T00:42:31.311Z,100218.47
2023-05-05T00:43:31.018Z,100222.81
2023-05-05T00:44:43.396Z,100222.12
2023-05-05T00:45:50.962Z,100216.41
2023-05-05T00:46:49.213Z,100223.56
2023-05-05T00:47:52.015Z,100225.94
2023-05-05T00:48:50.701Z,100219.34
2023-05-05T00:49:48.152Z,100221.50
2023-05-05T00:50:51.643Z,100218.47
2023-05-05T00:51:48.924Z,100221.41
2023-05-05T00:52:46.780Z,100219.34
2023-05-05T00:53:45.691Z,100214.16
2023-05-05T00:54:54.912Z,100220.81
2023-05-05T00:55:52.714Z,100222.44
2023-05-05T00:56:51.448Z,100218.88
2023-05-05T00:57:55.932Z,100216.50
2023-05-05T00:59:05.332Z,100221.41
2023-05-05T01:00:03.429Z,100216.28
2023-05-05T01:01:02.037Z,100219.66
2023-05-05T01:02:00.249Z,100218.12
2023-05-05T01:02:57.644Z,100213.50
2023-05-05T01:03:56.005Z,100220.97
2023-05-05T01:04:54.984Z,100219.44
2023-05-05T01:06:10.773Z,100214.59
2023-05-05T01:07:53.721Z,100219.13
2023-05-05T01:09:09.793Z,100212.75
2023-05-05T01:10:34.220Z,100220.25
2023-05-05T01:11:39.307Z,100217.84
2023-05-05T01:12:42.902Z,100220.25
2023-05-05T01:13:46.762Z,100210.63
2023-05-05T01:14:57.990Z,100220.44
2023-05-05T01:16:14.976Z,100214.38
2023-05-05T01:17:39.679Z,100217.16
2023-05-05T01:19:03.730Z,100214.94
2023-05-05T01:20:22.957Z,100214.47
2023-05-05T01:22:48.281Z,100214.69
2023-05-05T01:24:09.023Z,100215.56
2023-05-05T01:25:34.332Z,100213.53
2023-05-05T01:26:38.115Z,100215.94
2023-05-05T01:28:10.764Z,100208.25
2023-05-05T01:29:40.693Z,100205.03
2023-05-05T01:31:09.850Z,100212.59
2023-05-05T01:32:18.051Z,100211.94
2023-05-05T01:33:16.930Z,100210.34
2023-05-05T01:34:15.551Z,100204.56
2023-05-05T01:35:26.544Z,100208.94
2023-05-05T01:36:33.628Z,100212.88
2023-05-05T01:38:16.065Z,100216.91
2023-05-05T01:39:19.499Z,100210.47
2023-05-05T01:40:22.375Z,100213.84
2023-05-05T01:41:34.610Z,100211.28
2023-05-05T01:42:34.747Z,100202.75
2023-05-05T01:43:35.167Z,100213.41
2023-05-05T01:44:34.259Z,100211.09
2023-05-05T01:45:34.531Z,100209.66
2023-05-05T01:46:35.249Z,100208.62
2023-05-05T01:47:33.211Z,100206.75
2023-05-05T01:48:34.823Z,100214.97
2023-05-05T01:49:33.682Z,100206.19
2023-05-05T01:50:31.566Z,100212.94
2023-05-05T01:51:30.628Z,100200.22
2023-05-05T01:52:30.878Z,100205.25
2023-05-05T01:53:29.663Z,100203.72
2023-05-05T01:54:27.466Z,100211.31
2023-05-05T01:55:26.310Z,100205.12
2023-05-05T01:56:24.678Z,100208.34
2023-05-05T01:57:24.197Z,100204.66
2023-05-05T01:58:23.079Z,100205.50
2023-05-05T01:59:21.472Z,100201.59
2023-05-05T02:00:20.643Z,100199.38
2023-05-05T02:01:20.519Z,100205.44
2023-05-05T02:02:20.462Z,100206.19
2023-05-05T02:03:19.041Z,100198.53
2023-05-05T02:04:18.474Z,100196.87
2023-05-05T02:05:17.434Z,100204.53
2023-05-05T02:06:16.826Z,100197.25
2023-05-05T02:07:15.477Z,100188.69
2023-05-05T02:08:18.804Z,100198.81
2023-05-05T02:09:17.198Z,100194.97
2023-05-05T02:10:18.468Z,100197.50
2023-05-05T02:11:16.547Z,100195.94
2023-05-05T02:12:14.171Z,100197.47
2023-05-05T02:13:19.135Z,100194.53
2023-05-05T02:14:28.400Z,100195.47
2023-05-05T02:15:26.666Z,100198.00
2023-05-05T02:16:25.881Z,100193.09
2023-05-05T02:17:24.029Z,100183.13
2023-05-05T02:18:23.176Z,100190.31
2023-05-05T02:19:22.871Z,100186.47
2023-05-05T02:20:22.266Z,100186.78
2023-05-05T02:21:20.402Z,100189.16
2023-05-05T02:22:17.572Z,100194.19
2023-05-05T02:23:15.221Z,100191.22
2023-05-05T02:24:12.982Z,100187.53
2023-05-05T02:25:11.352Z,100192.75
2023-05-05T02:26:12.039Z,100189.94
2023-05-05T02:27:11.142Z,100196.00
2023-05-05T02:28:14.063Z,100191.22
2023-05-05T02:29:17.726Z,100195.44
2023-05-05T02:30:17.022Z,100192.56
2023-05-05T02:31:17.390Z,100198.47
2023-05-05T02:32:35.723Z,100194.09
2023-05-05T02:33:34.848Z,100190.94
2023-05-05T02:34:40.839Z,100191.34
2023-05-05T02:35:42.122Z,100191.75
2023-05-05T02:36:42.928Z,100196.41
2023-05-05T02:37:40.336Z,100194.22
2023-05-05T02:38:44.467Z,100194.91
2023-05-05T02:39:47.963Z,100194.09
2023-05-05T02:40:53.499Z,100203.63
2023-05-05T02:41:53.225Z,100195.00
2023-05-05T02:42:54.968Z,100199.06
2023-05-05T02:43:52.915Z,100185.06
2023-05-05T02:44:51.991Z,100188.97
2023-05-05T02:45:49.302Z,100194.19
2023-05-05T02:46:46.920Z,100193.94
2023-05-05T02:47:45.471Z,100191.59
2023-05-05T02:48:43.206Z,100194.88
2023-05-05T02:49:40.794Z,100189.63
2023-05-05T02:50:38.545Z,100194.53
2023-05-05T02:51:35.983Z,100192.87
2023-05-05T02:52:35.657Z,100195.53
2023-05-05T02:53:33.040Z,100191.16
2023-05-05T02:54:32.003Z,100192.16
2023-05-05T02:55:38.760Z,100192.87
2023-05-05T02:56:48.221Z,100193.72
2023-05-05T02:57:51.139Z,100192.09
2023-05-05T02:59:32.891Z,100194.78
2023-05-05T03:00:48.662Z,100189.31
2023-05-05T03:02:16.466Z,100196.03
2023-05-05T03:03:27.362Z,100189.13
2023-05-05T03:04:31.182Z,100189.66
2023-05-05T03:05:44.425Z,100196.03
2023-05-05T03:06:44.428Z,100194.22
2023-05-05T03:07:48.951Z,100190.25
2023-05-05T03:09:06.838Z,100202.97
2023-05-05T03:10:09.939Z,100202.44
2023-05-05T03:11:16.219Z,100196.16
2023-05-05T03:12:19.641Z,100198.47
2023-05-05T03:13:18.571Z,100195.03
2023-05-05T03:14:21.613Z,100196.03
2023-05-05T03:15:21.882Z,100201.09
2023-05-05T03:16:20.236Z,100195.59
2023-05-05T03:17:19.092Z,100198.25
2023-05-05T03:18:18.326Z,100204.78
2023-05-05T03:19:18.635Z,100206.94
2023-05-05T03:20:16.425Z,100201.72
2023-05-05T03:21:14.768Z,100199.06
2023-05-05T03:22:12.359Z,100202.34
2023-05-05T03:23:10.830Z,100204.69
2023-05-05T03:24:17.870Z,100199.06
2023-05-05T03:25:16.877Z,100198.16
2023-05-05T03:26:18.197Z,100196.81
2023-05-05T03:27:15.400Z,100197.22
2023-05-05T03:28:13.190Z,100193.97
2023-05-05T03:29:10.459Z,100201.16
2023-05-05T03:30:09.162Z,100196.50
2023-05-05T03:31:09.399Z,100191.84
2023-05-05T03:32:07.729Z,100196.63
2023-05-05T03:33:05.303Z,100200.84
2023-05-05T03:34:03.686Z,100201.41
2023-05-05T03:35:01.400Z,100195.38
2023-05-05T03:35:59.020Z,100196.06
2023-05-05T03:36:57.749Z,100196.16
2023-05-05T03:37:59.239Z,100197.19
2023-05-05T03:38:56.506Z,100191.12
2023-05-05T03:39:54.091Z,100190.25
2023-05-05T03:40:51.629Z,100199.31
2023-05-05T03:41:52.863Z,100193.94
2023-05-05T03:42:53.962Z,100188.16
2023-05-05T03:43:52.579Z,100188.72
2023-05-05T03:44:54.273Z,100190.84
2023-05-05T03:45:51.479Z,100185.53
2023-05-05T03:46:49.349Z,100190.22
2023-05-05T03:47:46.633Z,100190.97
2023-05-05T03:48:44.544Z,100187.06
2023-05-05T03:49:42.399Z,100188.16
2023-05-05T03:50:39.821Z,100191.69
2023-05-05T03:51:37.590Z,100179.44
2023-05-05T03:52:34.868Z,100191.25
2023-05-05T03:53:32.036Z,100191.81
2023-05-05T03:54:29.400Z,100191.28
2023-05-05T03:55:26.683Z,100180.84
2023-05-05T03:56:23.811Z,100185.81
2023-05-05T03:57:21.164Z,100191.59
2023-05-05T03:58:19.089Z,100188.56
2023-05-05T03:59:16.410Z,100190.78
2023-05-05T04:00:14.402Z,100190.31
2023-05-05T04:01:12.158Z,100185.66
2023-05-05T04:02:09.586Z,100191.25
2023-05-05T04:03:07.025Z,100189.81
2023-05-05T04:04:04.738Z,100184.69
2023-05-05T04:05:01.984Z,100184.69
2023-05-05T04:05:59.196Z,100186.59
2023-05-05T04:06:56.437Z,100183.91
2023-05-05T04:07:53.693Z,100187.72
2023-05-05T04:08:51.006Z,100179.66
2023-05-05T04:09:48.156Z,100189.09
2023-05-05T04:10:46.108Z,100189.28
2023-05-05T04:11:43.152Z,100186.94
2023-05-05T04:12:40.506Z,100189.94
2023-05-05T04:13:37.677Z,100192.16
2023-05-05T04:14:34.993Z,100188.72
2023-05-05T04:15:32.551Z,100185.28
2023-05-05T04:16:31.559Z,100191.56
2023-05-05T04:17:29.287Z,100193.78
2023-05-05T04:18:27.317Z,100193.50
2023-05-05T04:19:24.756Z,100194.88
2023-05-05T04:20:22.383Z,100197.69
2023-05-05T04:21:20.769Z,100195.00
2023-05-05T04:22:18.004Z,100196.00
2023-05-05T04:23:15.565Z,100198.16
2023-05-05T04:24:14.616Z,100197.19
2023-05-05T04:25:13.445Z,100194.59
2023-05-05T04:26:10.601Z,100200.97
2023-05-05T04:27:08.605Z,100199.13
2023-05-05T04:28:09.987Z,100192.91
2023-05-05T04:29:14.642Z,100192.97
2023-05-05T04:30:12.288Z,100193.72
2023-05-05T04:31:18.146Z,100192.44
2023-05-05T04:32:15.647Z,100188.47
2023-05-05T04:33:15.965Z,100193.41
2023-05-05T04:34:13.633Z,100182.00
2023-05-05T04:35:11.350Z,100187.59
2023-05-05T04:36:12.235Z,100185.06
2023-05-05T04:37:09.733Z,100192.31
2023-05-05T04:38:07.308Z,100187.41
2023-05-05T04:39:07.399Z,100186.56
2023-05-05T04:40:05.838Z,100191.75
2023-05-05T04:41:09.126Z,100187.19
2023-05-05T04:42:09.504Z,100192.72
2023-05-05T04:43:07.782Z,100190.47
2023-05-05T04:44:05.426Z,100196.16
2023-05-05T04:45:02.795Z,100194.72
2023-05-05T04:46:00.362Z,100188.06
2023-05-05T04:46:58.430Z,100199.59
2023-05-05T04:47:56.473Z,100192.78
2023-05-05T04:48:53.869Z,100187.56
2023-05-05T04:49:51.656Z,100192.31
2023-05-05T04:50:48.769Z,100196.87
2023-05-05T04:51:46.894Z,100193.94
2023-05-05T04:52:44.289Z,100194.78
2023-05-05T04:53:41.874Z,100202.94
2023-05-05T04:54:39.623Z,100199.00
2023-05-05T04:55:39.548Z,100206.75
2023-05-05T04:57:23.871Z,100211.22
2023-05-05T04:58:20.910Z,100200.13
2023-05-05T04:59:17.905Z,100208.09
2023-05-05T05:00:15.644Z,100212.00
2023-05-05T05:01:12.751Z,100210.25
2023-05-05T05:02:10.065Z,100209.87
2023-05-05T05:03:08.666Z,100214.25
2023-05-05T05:04:11.118Z,100215.94
2023-05-05T05:05:11.146Z,100212.12
2023-05-05T05:06:08.345Z,100222.00
2023-05-05T05:07:05.493Z,100216.22
2023-05-05T05:08:02.526Z,100221.91
2023-05-05T05:08:59.672Z,100220.34
2023-05-05T05:09:56.633Z,100216.41
2023-05-05T05:10:55.261Z,100224.41
2023-05-05T05:11:52.206Z,100220.19
2023-05-05T05:12:49.335Z,100216.59
2023-05-05T05:13:46.612Z,100219.31
2023-05-05T05:14:43.645Z,100218.66
2023-05-05T05:15:40.993Z,100215.78
2023-05-05T05:16:38.157Z,100223.44
2023-05-05T05:17:35.519Z,100218.31
2023-05-05T05:18:32.690Z,100218.25
2023-05-05T05:19:29.676Z,100222.91
2023-05-05T05:20:26.809Z,100216.22
2023-05-05T05:21:23.884Z,100212.09
2023-05-05T05:22:20.943Z,100219.78
2023-05-05T05:23:24.077Z,100222.56
2023-05-05T05:24:20.942Z,100220.94
2023-05-05T05:25:20.969Z,100218.88
2023-05-05T05:26:18.052Z,100216.16
2023-05-05T05:27:14.982Z,100219.28
2023-05-05T05:28:19.231Z,100218.91
2023-05-05T05:29:16.362Z,100222.72
2023-05-05T05:30:19.405Z,100220.63
2023-05-05T05:31:16.437Z,100219.81
2023-05-05T05:32:13.394Z,100222.59
2023-05-05T05:33:10.922Z,100216.03
2023-05-05T05:34:10.315Z,100221.94
2023-05-05T05:35:09.672Z,100231.50
2023-05-05T05:36:09.902Z,100221.41
2023-05-05T05:37:06.783Z,100224.59
2023-05-05T05:38:03.907Z,100230.31
2023-05-05T05:39:00.840Z,100223.69
2023-05-05T05:40:01.579Z,100220.66
2023-05-05T05:40:58.312Z,100227.63
2023-05-05T05:41:56.589Z,100225.38
2023-05-05T05:42:53.629Z,100226.03
2023-05-05T05:43:51.958Z,100230.87
2023-05-05T05:44:48.909Z,100230.47
2023-05-05T05:45:45.996Z,100236.75
2023-05-05T05:46:43.156Z,100230.06
2023-05-05T05:47:40.227Z,100225.91
2023-05-05T05:48:49.438Z,100228.88
2023-05-05T05:49:46.499Z,100229.09
2023-05-05T05:50:46.042Z,100226.00
2023-05-05T05:51:43.061Z,100230.63
2023-05-05T05:52:41.601Z,100224.38
2023-05-05T05:53:38.716Z,100226.22
2023-05-05T05:54:39.112Z,100220.84
2023-05-05T05:55:36.180Z,100224.00
2023-05-05T05:56:33.943Z,100226.28
2023-05-05T05:57:30.927Z,100221.91
2023-05-05T05:58:27.863Z,100227.34
2023-05-05T05:59:24.759Z,100219.00
2023-05-05T06:00:21.720Z,100227.37
2023-05-05T06:01:19.722Z,100229.66
2023-05-05T06:02:18.828Z,100227.97
2023-05-05T06:03:16.147Z,100225.03
2023-05-05T06:04:13.688Z,100226.50
2023-05-05T06:05:11.228Z,100221.28
2023-05-05T06:06:08.089Z,100220.84
2023-05-05T06:07:05.060Z,100220.44
2023-05-05T06:08:02.339Z,100224.41
2023-05-05T06:09:01.236Z,100225.88
2023-05-05T06:09:58.239Z,100230.72
2023-05-05T06:10:55.318Z,100226.94
2023-05-05T06:11:53.681Z,100225.25
2023-05-05T06:12:51.789Z,100222.12
2023-05-05T06:13:48.827Z,100226.09
2023-05-05T06:14:45.958Z,100224.44
2023-05-05T06:15:44.788Z,100238.44
2023-05-05T06:16:55.439Z,100228.62
2023-05-05T06:17:52.409Z,100231.97
2023-05-05T06:18:56.678Z,100232.38
2023-05-05T06:19:54.537Z,100236.75
2023-05-05T06:20:52.517Z,100230.87
2023-05-05T06:21:49.618Z,100234.03
2023-05-05T06:22:46.557Z,100228.94
2023-05-05T06:23:43.586Z,100231.03
2023-05-05T06:24:40.840Z,100227.03
2023-05-05T06:25:37.907Z,100234.16
2023-05-05T06:26:35.085Z,100230.16
2023-05-05T06:27:33.877Z,100224.09
2023-05-05T06:28:30.908Z,100230.78
2023-05-05T06:29:28.866Z,100233.50
2023-05-05T06:30:27.029Z,100232.22
2023-05-05T06:31:24.999Z,100230.13
2023-05-05T06:32:25.391Z,100237.66
2023-05-05T06:33:35.262Z,100234.25
2023-05-05T06:34:32.993Z,100234.00
2023-05-05T06:35:30.709Z,100235.69
2023-05-05T06:36:28.385Z,100240.31
2023-05-05T06:37:25.599Z,100236.16
2023-05-05T06:38:26.701Z,100233.41
2023-05-05T06:39:23.830Z,100242.41
2023-05-05T06:40:24.720Z,100237.16
2023-05-05T06:41:21.804Z,100233.72
2023-05-05T06:42:29.321Z,100232.19
2023-05-05T06:43:27.208Z,100242.50
2023-05-05T06:44:28.780Z,100231.31
2023-05-05T06:45:51.550Z,100239.88
2023-05-05T06:46:51.249Z,100236.03
2023-05-05T06:47:49.402Z,100238.00
2023-05-05T06:48:46.556Z,100236.31
2023-05-05T06:49:43.606Z,100238.69
2023-05-05T06:50:42.201Z,100242.19
2023-05-05T06:51:41.052Z,100229.72
2023-05-05T06:52:39.777Z,100235.34
2023-05-05T06:53:36.826Z,100230.91
2023-05-05T06:54:41.818Z,100237.53
2023-05-05T06:55:43.558Z,100237.59
2023-05-05T06:56:41.229Z,100234.72
2023-05-05T06:57:41.093Z,100241.53
2023-05-05T06:58:38.244Z,100239.50
2023-05-05T06:59:39.759Z,100242.25
2023-05-05T07:00:37.035Z,100240.03
2023-05-05T07:01:41.031Z,100240.56
2023-05-05T07:02:39.015Z,100237.59
2023-05-05T07:03:36.571Z,100239.19
2023-05-05T07:04:33.558Z,100244.63
2023-05-05T07:05:40.110Z,100242.91
2023-05-05T07:06:38.577Z,100249.81
2023-05-05T07:07:36.459Z,100240.19
2023-05-05T07:10:47.967Z,100240.25
2023-05-05T07:11:45.608Z,100239.56
2023-05-05T07:12:47.318Z,100242.84
2023-05-05T07:13:44.785Z,100235.62
2023-05-05T07:14:42.753Z,100243.38
2023-05-05T07:17:02.249Z,100231.00
2023-05-05T07:18:00.076Z,100232.44
2023-05-05T07:18:58.051Z,100239.66
2023-05-05T07:19:55.472Z,100235.84
2023-05-05T07:20:54.495Z,100229.41
2023-05-05T07:21:53.018Z,100233.66
2023-05-05T07:22:50.448Z,100227.37
2023-05-05T07:23:48.251Z,100229.41
2023-05-05T07:24:46.190Z,100226.59
2023-05-05T07:25:44.291Z,100226.38
2023-05-05T07:26:50.124Z,100222.12
2023-05-05T07:56:36.050Z,100219.16
2023-05-05T07:57:43.360Z,100220.47
2023-05-05T07:58:40.664Z,100224.88
2023-05-05T07:59:38.893Z,100218.72
2023-05-05T08:00:35.954Z,100220.63
2023-05-05T08:01:33.153Z,100218.62
2023-05-05T08:02:30.315Z,100223.16
2023-05-05T08:03:30.758Z,100231.47
2023-05-05T08:04:27.990Z,100222.06
2023-05-05T08:05:25.138Z,100215.00
2023-05-05T08:06:22.627Z,100221.91
2023-05-05T08:07:19.704Z,100222.69
2023-05-05T08:08:17.086Z,100220.56
2023-05-05T08:09:14.350Z,100223.53
2023-05-05T08:10:12.435Z,100223.06
2023-05-05T08:11:09.690Z,100219.75
2023-05-05T08:12:07.030Z,100222.31
2023-05-05T08:13:04.475Z,100223.63
2023-05-05T08:14:01.699Z,100220.06
2023-05-05T08:14:58.812Z,100218.97
2023-05-05T08:15:56.181Z,100221.88
2023-05-05T08:16:53.344Z,100218.53
2023-05-05T08:17:52.356Z,100219.50
2023-05-05T08:18:49.697Z,100215.22
2023-05-05T08:19:46.978Z,100215.38
2023-05-05T08:20:44.712Z,100216.69
2023-05-05T08:21:41.850Z,100221.03
2023-05-05T08:22:39.196Z,100209.84
2023-05-05T08:23:37.267Z,100214.13
2023-05-05T08:24:34.515Z,100219.38
2023-05-05T08:25:31.725Z,100215.81
2023-05-05T08:26:29.449Z,100215.47
2023-05-05T08:27:26.555Z,100221.81
2023-05-05T08:28:23.941Z,100215.72
2023-05-05T08:29:21.121Z,100216.31
2023-05-05T08:30:21.211Z,100227.37
2023-05-05T08:31:18.611Z,100215.72
2023-05-05T08:32:16.696Z,100216.31
2023-05-05T08:33:13.880Z,100217.19
2023-05-05T08:34:11.133Z,100216.75
2023-05-05T08:35:08.694Z,100214.44
2023-05-05T08:36:07.170Z,100214.13
2023-05-05T08:37:04.574Z,100211.50
2023-05-05T08:38:01.701Z,100210.44
2023-05-05T08:38:59.893Z,100213.53
2023-05-05T08:39:58.164Z,100208.06
2023-05-05T08:40:55.339Z,100210.56
2023-05-05T08:41:52.522Z,100215.56
2023-05-05T08:42:49.783Z,100210.69
2023-05-05T08:43:50.996Z,100212.22
2023-05-05T08:44:48.277Z,100208.88
2023-05-05T08:45:45.598Z,100212.84
2023-05-05T08:46:43.332Z,100214.59
2023-05-05T08:47:40.759Z,100210.19
2023-05-05T08:48:41.871Z,100213.53
2023-05-05T08:49:48.399Z,100207.81
2023-05-05T08:50:49.375Z,100211.38
2023-05-05T08:51:47.332Z,100213.53
2023-05-05T08:52:45.645Z,100209.63
2023-05-05T08:53:54.966Z,100213.28
2023-05-05T08:54:57.182Z,100209.94
2023-05-05T08:55:56.892Z,100213.03
2023-05-05T08:56:54.465Z,100209.09
2023-05-05T08:57:57.801Z,100210.25
2023-05-05T08:58:55.429Z,100214.09
2023-05-05T08:59:53.070Z,100213.37
2023-05-05T09:00:51.287Z,100208.69
2023-05-05T09:01:48.798Z,100209.78
2023-05-05T09:02:46.701Z,100204.66
2023-05-05T09:03:44.955Z,100211.69
2023-05-05T09:04:42.877Z,100213.97
2023-05-05T09:05:40.041Z,100210.84
2023-05-05T09:06:37.729Z,100211.19
2023-05-05T09:07:35.329Z,100213.47
2023-05-05T09:08:33.249Z,100210.00
2023-05-05T09:09:30.912Z,100218.59
2023-05-05T09:10:32.052Z,100217.09
2023-05-05T09:11:29.112Z,100211.94
2023-05-05T09:12:28.489Z,100216.81
2023-05-05T09:15:54.444Z,100202.00
2023-05-05T09:16:51.578Z,100204.88
2023-05-05T09:17:48.874Z,100208.94
2023-05-05T09:18:46.128Z,100203.09
2023-05-05T09:20:04.146Z,100203.31
2023-05-05T09:21:01.691Z,100210.13
2023-05-05T09:21:58.731Z,100201.75
2023-05-05T09:22:56.251Z,100202.56
2023-05-05T09:24:09.541Z,100197.66
2023-05-05T09:26:09.165Z,100201.28
2023-05-05T09:27:22.634Z,100192.19
2023-05-05T09:28:19.832Z,100197.59
2023-05-05T09:29:20.809Z,100197.66
2023-05-05T09:30:23.842Z,100199.50
2023-05-05T09:31:21.318Z,100197.22
2023-05-05T09:32:18.913Z,100199.25
2023-05-05T09:33:30.250Z,100194.69
2023-05-05T09:34:27.520Z,100191.47
2023-05-05T09:35:24.737Z,100191.06
2023-05-05T09:36:42.290Z,100188.63
2023-05-05T09:37:39.516Z,100190.03
2023-05-05T09:38:37.111Z,100189.87
2023-05-05T09:39:34.184Z,100178.91
2023-05-05T09:40:48.582Z,100191.44
2023-05-05T09:41:46.187Z,100194.16
2023-05-05T09:42:44.653Z,100182.47
2023-05-05T09:43:52.138Z,100186.19
2023-05-05T09:44:49.444Z,100183.22
2023-05-05T09:45:46.678Z,100177.81
2023-05-05T09:46:51.772Z,100175.91
2023-05-05T09:47:49.475Z,100182.16
2023-05-05T09:48:46.872Z,100178.66
2023-05-05T09:49:43.973Z,100187.19
2023-05-05T09:50:44.854Z,100185.63
2023-05-05T09:51:42.210Z,100184.25
2023-05-05T09:52:39.354Z,100185.53
2023-05-05T09:53:41.029Z,100183.59
2023-05-05T09:54:38.190Z,100182.75
2023-05-05T09:55:36.472Z,100193.97
2023-05-05T09:56:43.309Z,100185.59
2023-05-05T09:57:40.522Z,100184.56
2023-05-05T09:58:37.823Z,100178.34
2023-05-05T09:59:35.015Z,100180.69
2023-05-05T10:00:39.843Z,100179.56
2023-05-05T10:01:37.072Z,100175.72
2023-05-05T10:02:36.680Z,100173.88
2023-05-05T10:03:33.791Z,100184.47
2023-05-05T10:04:31.781Z,100177.69
2023-05-05T10:05:29.009Z,100170.62
2023-05-05T10:06:44.310Z,100172.13
2023-05-05T10:07:43.175Z,100176.84
2023-05-05T10:08:40.567Z,100175.28
2023-05-05T10:09:37.695Z,100172.34
2023-05-05T10:10:34.793Z,100180.25
2023-05-05T10:11:32.295Z,100174.84
2023-05-05T10:12:30.546Z,100174.72
2023-05-05T10:13:28.556Z,100169.59
2023-05-05T10:14:26.057Z,100175.22
2023-05-05T10:15:23.387Z,100175.34
2023-05-05T10:16:21.186Z,100175.69
2023-05-05T10:17:19.666Z,100178.53
2023-05-05T10:18:28.713Z,100175.87
2023-05-05T10:19:27.361Z,100185.03
2023-05-05T10:20:24.753Z,100178.25
2023-05-05T10:21:22.173Z,100180.72
2023-05-05T10:22:23.646Z,100182.41
2023-05-05T10:23:23.890Z,100180.00
2023-05-05T10:24:35.340Z,100172.00
2023-05-05T10:25:38.474Z,100173.56
2023-05-05T10:26:39.910Z,100172.63
2023-05-05T10:27:51.297Z,100171.53
2023-05-05T10:28:53.227Z,100173.41
2023-05-05T10:30:07.240Z,100170.72
2023-05-05T10:31:19.993Z,100163.25
2023-05-05T10:32:53.582Z,100163.84
2023-05-05T10:33:55.971Z,100172.16
2023-05-05T10:35:03.993Z,100164.88
2023-05-05T10:36:06.356Z,100173.94
2023-05-05T10:37:05.093Z,100164.53
2023-05-05T10:38:02.476Z,100164.06
2023-05-05T10:39:00.671Z,100155.28
2023-05-05T10:39:58.148Z,100151.81
2023-05-05T10:40:55.937Z,100156.31
2023-05-05T10:41:53.294Z,100151.69
2023-05-05T10:42:51.218Z,100151.78
2023-05-05T10:43:48.476Z,100151.91
2023-05-05T10:44:45.665Z,100142.34
2023-05-05T10:45:43.523Z,100142.91
2023-05-05T10:46:41.693Z,100144.09
2023-05-05T10:47:40.740Z,100146.84
2023-05-05T10:48:49.045Z,100133.91
2023-05-05T10:50:16.671Z,100142.44
2023-05-05T10:51:40.135Z,100142.37
2023-05-05T10:53:18.582Z,100137.62
2023-05-05T10:54:24.250Z,100129.97
2023-05-05T10:55:31.076Z,100137.12
2023-05-05T10:56:32.894Z,100132.25
2023-05-05T10:57:30.353Z,100125.09
2023-05-05T10:58:51.120Z,100129.44
2023-05-05T10:59:53.036Z,100128.34
2023-05-05T11:00:51.308Z,100122.22
2023-05-05T11:01:51.038Z,100123.78
2023-05-05T11:02:48.382Z,100119.75
2023-05-05T11:03:45.586Z,100118.00
2023-05-05T11:04:42.581Z,100118.44
2023-05-05T11:06:08.543Z,100119.31
2023-05-05T11:07:10.478Z,100116.22
2023-05-05T11:08:27.228Z,100111.59
2023-05-05T11:09:28.438Z,100116.06
2023-05-05T11:10:25.713Z,100127.97
2023-05-05T11:12:02.014Z,100122.22
2023-05-05T11:12:59.655Z,100117.44
2023-05-05T11:14:19.865Z,100120.44
2023-05-05T11:15:31.996Z,100123.16
2023-05-05T11:16:50.465Z,100121.19
2023-05-05T11:17:51.287Z,100120.62
2023-05-05T11:18:49.380Z,100115.19
2023-05-05T11:19:49.179Z,100115.03
2023-05-05T11:20:51.024Z,100114.16
2023-05-05T11:22:02.253Z,100110.84
2023-05-05T11:23:06.035Z,100105.00
2023-05-05T11:24:30.245Z,100108.16
2023-05-05T11:25:47.753Z,100101.69
2023-05-05T11:26:52.496Z,100110.84
2023-05-05T11:28:16.697Z,100098.53
2023-05-05T11:29:13.879Z,100111.13
2023-05-05T11:30:12.289Z,100105.84
2023-05-05T11:31:18.515Z,100103.25
2023-05-05T11:32:17.375Z,100106.56
2023-05-05T11:33:41.489Z,100098.59
2023-05-05T11:34:51.369Z,100103.25
2023-05-05T11:35:57.414Z,100099.72
2023-05-05T11:37:02.788Z,100097.87
2023-05-05T11:38:04.169Z,100095.19
2023-05-05T11:39:04.111Z,100096.41
2023-05-05T11:51:27.511Z,100077.13
2023-05-05T11:52:26.130Z,100077.13
2023-05-05T11:53:23.470Z,100075.19
2023-05-05T11:54:21.601Z,100077.78
2023-05-05T11:55:22.328Z,100079.47
2023-05-05T11:56:19.938Z,100080.94
2023-05-05T11:57:19.729Z,100090.09
2023-05-05T11:58:28.791Z,100079.19
2023-05-05T11:59:25.921Z,100081.09
2023-05-05T12:00:32.977Z,100081.06
2023-05-05T12:01:30.178Z,100074.44
2023-05-05T12:02:28.646Z,100078.03
2023-05-05T12:03:25.859Z,100082.06
2023-05-05T12:04:26.150Z,100082.97
2023-05-05T12:05:53.771Z,100082.69
2023-05-05T12:06:51.979Z,100081.91
2023-05-05T12:08:00.849Z,100079.16
2023-05-05T12:09:00.594Z,100080.97
2023-05-05T12:10:12.565Z,100080.19
2023-05-05T12:11:11.916Z,100076.34
2023-05-05T12:12:08.891Z,100070.53
2023-05-05T12:13:18.411Z,100078.81
2023-05-05T12:14:15.550Z,100074.66
2023-05-05T12:15:12.552Z,100077.31
2023-05-05T12:16:13.552Z,100072.31
2023-05-05T12:17:10.579Z,100066.84
2023-05-05T12:18:19.032Z,100065.94
2023-05-05T12:19:16.152Z,100063.06
2023-05-05T12:20:13.543Z,100058.44
2023-05-05T12:21:19.812Z,100055.69
2023-05-05T12:22:20.773Z,100055.53
2023-05-05T12:23:17.911Z,100057.44
2023-05-05T12:24:15.875Z,100053.69
2023-05-05T12:25:12.907Z,100050.72
2023-05-05T12:26:26.228Z,100049.84
2023-05-05T12:27:23.823Z,100046.19